Aberdeen, Pennsylvania
Current Conditions -  °F | °C
As of 4:56 AM on Saturday 25 Oct 2014 (Local Time) from KMDT Reporting Station
Clear Clear  
Wind Chill:   Ceiling: Unl
Heat Index:   Visibility: 10mi
Dew Point:   Wind: 0mph
Humidity: 82%   Direction: NA
Pressure: 29.92"   Gusts: NA
Location:  40.1674°N, 76.6045°W
Report Text: KMDT 250856Z 00000KT 10SM CLR 07/04 A2992 RMK AO2 SLP132 T00670039 58003
Loading
Personal Weather Stations






























Interactive Weather Map
Tropical Storm Tracking
New forecast layout! Learn more

10-Day Weather Forecast

Advertisements
Track Severe Weather on mobile